createdAt,value
2023-03-20T00:01:17.072Z,5.63
2023-03-20T00:03:50.083Z,8.75
2023-03-20T00:06:25.480Z,5.35
2023-03-20T00:08:58.356Z,5.60
2023-03-20T00:11:34.028Z,6.28
2023-03-20T00:14:09.603Z,9.07
2023-03-20T00:16:46.485Z,8.10
2023-03-20T00:19:20.970Z,6.72
2023-03-20T00:21:55.364Z,5.25
2023-03-20T00:24:28.255Z,7.22
2023-03-20T00:27:02.710Z,6.70
2023-03-20T00:29:35.684Z,5.47
2023-03-20T00:32:13.890Z,4.82
2023-03-20T00:34:47.123Z,7.40
2023-03-20T00:37:19.942Z,6.22
2023-03-20T00:39:52.645Z,6.32
2023-03-20T00:42:25.985Z,6.60
2023-03-20T00:44:59.721Z,5.55
2023-03-20T00:47:38.775Z,7.40
2023-03-20T00:50:17.703Z,9.15
2023-03-20T00:52:51.606Z,6.15
2023-03-20T00:55:26.846Z,7.55
2023-03-20T00:58:01.708Z,5.82
2023-03-20T01:00:40.485Z,8.18
2023-03-20T01:03:18.822Z,7.25
2023-03-20T01:05:54.629Z,5.95
2023-03-20T01:08:27.698Z,6.38
2023-03-20T01:11:00.679Z,8.18
2023-03-20T01:13:33.943Z,7.65
2023-03-20T01:16:08.108Z,6.07
2023-03-20T01:18:42.369Z,6.28
2023-03-20T01:21:15.294Z,7.40
2023-03-20T01:23:48.466Z,7.70
2023-03-20T01:26:32.110Z,8.75
2023-03-20T01:29:05.877Z,9.98
2023-03-20T01:31:39.737Z,8.45
2023-03-20T01:34:16.354Z,11.32
2023-03-20T01:36:51.941Z,12.43
2023-03-20T01:39:33.544Z,7.88
2023-03-20T01:42:07.640Z,9.55
2023-03-20T01:44:41.132Z,7.90
2023-03-20T01:47:18.078Z,11.63
2023-03-20T01:50:26.694Z,6.72
2023-03-20T01:53:13.325Z,8.52
2023-03-20T01:55:55.557Z,9.15
2023-03-20T01:58:36.208Z,8.73
2023-03-20T02:01:13.693Z,13.05
2023-03-20T02:03:51.912Z,12.48
2023-03-20T02:06:29.340Z,9.20
2023-03-20T02:09:22.478Z,8.30
2023-03-20T02:11:57.217Z,9.48
2023-03-20T02:14:31.685Z,9.45
2023-03-20T02:17:18.024Z,7.32
2023-03-20T02:20:08.060Z,8.95
2023-03-20T02:23:18.462Z,8.95
2023-03-20T02:26:34.245Z,11.85
2023-03-20T02:29:42.546Z,10.07
2023-03-20T02:32:53.404Z,12.93
2023-03-20T02:36:01.664Z,9.73
2023-03-20T02:38:54.348Z,12.13
2023-03-20T02:41:31.609Z,13.13
2023-03-20T02:44:09.856Z,12.95
2023-03-20T02:46:52.732Z,13.00
2023-03-20T02:49:51.451Z,13.27
2023-03-20T02:52:35.000Z,11.65
2023-03-20T02:55:17.858Z,13.88
2023-03-20T02:57:59.888Z,13.10
2023-03-20T03:00:36.904Z,12.38
2023-03-20T03:03:18.514Z,14.15
2023-03-20T03:05:55.657Z,13.70
2023-03-20T03:08:35.009Z,15.45
2023-03-20T03:11:10.709Z,13.00
2023-03-20T03:13:48.016Z,16.40
2023-03-20T03:16:25.513Z,12.35
2023-03-20T03:19:06.558Z,14.48
2023-03-20T03:21:42.377Z,16.92
2023-03-20T03:24:40.214Z,16.40
2023-03-20T03:27:21.275Z,16.73
2023-03-20T03:29:58.482Z,18.52
2023-03-20T03:32:35.804Z,17.27
2023-03-20T03:35:16.227Z,17.30
2023-03-20T03:37:56.575Z,20.25
2023-03-20T03:40:37.186Z,17.85
2023-03-20T03:43:19.877Z,16.98
2023-03-20T03:45:56.914Z,16.23
2023-03-20T03:48:36.123Z,17.17
2023-03-20T03:51:14.179Z,16.30
2023-03-20T03:54:03.054Z,17.98
2023-03-20T03:56:39.712Z,15.88
2023-03-20T03:59:21.826Z,16.80
2023-03-20T04:01:57.593Z,17.08
2023-03-20T04:04:33.066Z,20.38
2023-03-20T04:07:05.974Z,17.20
2023-03-20T04:09:39.201Z,18.05
2023-03-20T04:12:34.323Z,18.05
2023-03-20T04:15:09.999Z,19.25
2023-03-20T04:17:43.360Z,16.30
2023-03-20T04:20:17.701Z,19.27
2023-03-20T04:22:52.481Z,18.67
2023-03-20T04:25:27.521Z,20.67
2023-03-20T04:28:01.754Z,17.85
2023-03-20T04:31:08.771Z,19.27
2023-03-20T04:34:00.036Z,17.98
2023-03-20T04:36:49.543Z,17.25
2023-03-20T04:39:24.251Z,15.75
2023-03-20T04:41:57.286Z,16.23
2023-03-20T04:44:30.248Z,16.77
2023-03-20T04:47:04.804Z,17.05
2023-03-20T04:49:39.730Z,15.70
2023-03-20T04:52:12.708Z,15.15
2023-03-20T04:54:48.065Z,16.35
2023-03-20T04:57:20.845Z,16.38
2023-03-20T04:59:54.077Z,21.02
2023-03-20T05:02:28.404Z,14.00
2023-03-20T05:05:01.468Z,14.98
2023-03-20T05:07:34.518Z,17.30
2023-03-20T05:10:12.751Z,13.52
2023-03-20T05:12:53.176Z,14.20
2023-03-20T05:15:47.844Z,13.05
2023-03-20T05:18:45.158Z,14.82
2023-03-20T05:21:31.730Z,14.43
2023-03-20T05:24:23.239Z,15.90
2023-03-20T05:27:07.807Z,14.15
2023-03-20T05:29:55.720Z,16.00
2023-03-20T05:33:01.342Z,15.60
2023-03-20T05:35:55.573Z,16.73
2023-03-20T05:38:39.344Z,16.65
2023-03-20T05:41:31.281Z,19.17
2023-03-20T05:44:16.769Z,16.38
2023-03-20T05:47:01.207Z,15.23
2023-03-20T05:49:52.612Z,15.27
2023-03-20T05:52:44.327Z,15.05
2023-03-20T05:55:27.054Z,17.60
2023-03-20T05:58:23.216Z,16.10
2023-03-20T06:01:08.099Z,14.73
2023-03-20T06:04:04.437Z,13.50
2023-03-20T06:06:55.920Z,14.57
2023-03-20T06:09:31.688Z,15.48
2023-03-20T06:12:04.882Z,16.15
2023-03-20T06:14:37.721Z,13.45
2023-03-20T06:17:13.646Z,16.48
2023-03-20T06:19:47.662Z,15.40
2023-03-20T06:22:20.802Z,13.50
2023-03-20T06:24:57.002Z,16.90
2023-03-20T06:27:35.842Z,15.20
2023-03-20T06:30:11.591Z,14.65
2023-03-20T06:32:47.432Z,16.13
2023-03-20T06:35:22.886Z,14.70
2023-03-20T06:37:57.030Z,14.75
2023-03-20T06:40:34.128Z,14.35
2023-03-20T06:43:07.368Z,15.00
2023-03-20T06:45:49.474Z,15.63
2023-03-20T06:48:31.452Z,15.27
2023-03-20T06:51:07.824Z,16.67
2023-03-20T06:53:48.191Z,15.23
2023-03-20T06:56:26.157Z,16.48
2023-03-20T06:58:59.630Z,16.23
2023-03-20T07:01:32.548Z,14.60
2023-03-20T07:04:06.057Z,13.10
2023-03-20T07:06:44.902Z,16.02
2023-03-20T07:09:18.992Z,15.20
2023-03-20T07:11:53.762Z,15.10
2023-03-20T07:14:26.717Z,14.20
2023-03-20T07:17:03.839Z,15.20
2023-03-20T07:19:38.406Z,15.07
2023-03-20T07:22:21.929Z,13.32
2023-03-20T07:24:55.708Z,12.68
2023-03-20T07:27:32.084Z,12.35
2023-03-20T07:30:06.156Z,15.05
2023-03-20T07:32:40.797Z,17.42
2023-03-20T07:35:14.018Z,14.07
2023-03-20T07:37:48.446Z,15.95
2023-03-20T07:40:21.561Z,14.27
2023-03-20T07:43:02.415Z,13.15
2023-03-20T07:46:05.082Z,14.90
2023-03-20T07:48:39.374Z,15.23
2023-03-20T07:51:12.415Z,17.73
2023-03-20T07:53:45.176Z,16.33
2023-03-20T07:56:18.030Z,13.32
2023-03-20T07:58:52.590Z,15.13
2023-03-20T08:01:25.920Z,13.95
2023-03-20T08:03:59.945Z,13.82
2023-03-20T08:06:32.884Z,13.13
2023-03-20T08:09:06.024Z,18.80
2023-03-20T08:11:38.860Z,14.18
2023-03-20T08:14:13.070Z,14.90
2023-03-20T08:16:45.999Z,14.45
2023-03-20T08:19:18.868Z,13.68
2023-03-20T08:21:52.467Z,15.13
2023-03-20T08:24:25.303Z,18.40
2023-03-20T08:26:58.220Z,15.48
2023-03-20T08:29:32.469Z,14.80
2023-03-20T08:32:05.725Z,15.27
2023-03-20T08:34:38.602Z,14.65
2023-03-20T08:37:12.500Z,15.43
2023-03-20T08:39:45.745Z,14.75
2023-03-20T08:42:18.627Z,16.85
2023-03-20T08:44:52.742Z,17.20
2023-03-20T08:47:26.496Z,14.60
2023-03-20T08:49:59.259Z,16.30
2023-03-20T08:52:32.870Z,20.05
2023-03-20T08:55:08.083Z,13.60
2023-03-20T08:57:41.546Z,15.50
2023-03-20T09:00:19.176Z,13.50
2023-03-20T09:02:52.303Z,16.20
2023-03-20T09:05:25.241Z,16.02
2023-03-20T09:07:58.029Z,15.55
2023-03-20T09:10:31.273Z,15.13
2023-03-20T09:13:23.495Z,13.60
2023-03-20T09:15:58.517Z,14.07
2023-03-20T09:18:31.556Z,16.23
2023-03-20T09:21:04.874Z,15.25
2023-03-20T09:23:37.645Z,15.07
2023-03-20T09:26:10.437Z,14.98
2023-03-20T09:28:43.306Z,17.58
2023-03-20T09:31:17.417Z,16.52
2023-03-20T09:33:50.644Z,15.43
2023-03-20T09:36:23.456Z,14.70
2023-03-20T09:38:56.353Z,13.43
2023-03-20T09:41:48.965Z,16.80
2023-03-20T09:44:45.672Z,14.05
2023-03-20T09:47:26.747Z,13.95
2023-03-20T09:50:22.228Z,14.20
2023-03-20T09:53:00.926Z,12.50
2023-03-20T09:55:38.090Z,14.45
2023-03-20T09:58:16.202Z,13.90
2023-03-20T10:00:49.706Z,13.52
2023-03-20T10:03:27.689Z,13.57
2023-03-20T10:06:03.524Z,12.65
2023-03-20T10:08:38.983Z,10.75
2023-03-20T10:11:32.411Z,13.95
2023-03-20T10:14:22.198Z,13.98
2023-03-20T10:17:10.441Z,10.63
2023-03-20T10:19:50.354Z,11.73
2023-03-20T10:22:26.314Z,12.93
2023-03-20T10:25:07.505Z,13.38
2023-03-20T10:27:44.045Z,15.82
2023-03-20T10:30:29.402Z,15.10
2023-03-20T10:33:26.582Z,13.93
2023-03-20T10:36:15.597Z,13.88
2023-03-20T10:38:55.895Z,11.60
2023-03-20T10:41:33.414Z,12.77
2023-03-20T10:44:11.832Z,16.88
2023-03-20T10:46:47.749Z,12.55
2023-03-20T10:49:29.954Z,12.13
2023-03-20T10:52:06.998Z,13.77
2023-03-20T10:54:43.688Z,14.25
2023-03-20T10:57:23.570Z,12.73
2023-03-20T10:59:58.244Z,12.27
2023-03-20T11:02:32.657Z,16.88
2023-03-20T11:05:21.135Z,13.90
2023-03-20T11:08:04.235Z,12.20
2023-03-20T11:10:38.801Z,12.82
2023-03-20T11:13:19.662Z,11.95
2023-03-20T11:15:53.442Z,12.52
2023-03-20T11:18:27.413Z,12.27
2023-03-20T11:21:03.206Z,12.93
2023-03-20T11:23:37.729Z,11.90
2023-03-20T11:26:15.111Z,13.98
2023-03-20T11:28:51.180Z,13.98
2023-03-20T11:31:30.889Z,15.75
2023-03-20T11:34:22.781Z,15.93
2023-03-20T11:37:09.803Z,13.45
2023-03-20T11:39:54.816Z,12.77
2023-03-20T11:42:29.454Z,14.93
2023-03-20T11:45:04.305Z,13.05
2023-03-20T11:47:37.678Z,16.70
2023-03-20T11:50:27.088Z,16.48
2023-03-20T11:53:01.742Z,14.40
2023-03-20T11:55:36.976Z,18.48
2023-03-20T11:58:18.027Z,17.80
2023-03-20T12:00:53.879Z,16.85
2023-03-20T12:03:42.173Z,19.20
2023-03-20T12:06:18.517Z,20.08
2023-03-20T12:09:00.121Z,20.63
2023-03-20T12:11:44.612Z,19.65
2023-03-20T12:14:25.447Z,20.48
2023-03-20T12:17:09.178Z,20.73
2023-03-20T12:19:43.873Z,18.63
2023-03-20T12:22:23.722Z,18.98
2023-03-20T12:25:04.230Z,17.58
2023-03-20T12:30:19.159Z,17.90
2023-03-20T12:33:00.320Z,18.08
2023-03-20T12:35:37.674Z,18.25
2023-03-20T12:38:24.240Z,19.92
2023-03-20T12:41:05.802Z,20.77
2023-03-20T12:43:49.041Z,20.95
2023-03-20T12:46:31.669Z,21.13
2023-03-20T12:49:13.966Z,19.40
2023-03-20T12:51:59.521Z,19.45
2023-03-20T12:54:45.394Z,20.95
2023-03-20T12:57:29.564Z,18.45
2023-03-20T13:00:19.155Z,19.60
2023-03-20T13:03:05.994Z,19.05
2023-03-20T13:05:46.909Z,19.45
2023-03-20T13:08:37.288Z,17.27
2023-03-20T13:11:18.974Z,19.50
2023-03-20T13:13:57.832Z,15.63
2023-03-20T13:16:43.938Z,16.13
2023-03-20T13:19:27.081Z,14.60
2023-03-20T13:22:07.047Z,15.40
2023-03-20T13:24:46.085Z,13.48
2023-03-20T13:27:32.855Z,12.13
2023-03-20T13:30:18.450Z,16.15
2023-03-20T13:33:04.627Z,14.88
2023-03-20T13:35:47.019Z,13.10
2023-03-20T13:38:23.836Z,13.90
2023-03-20T13:41:01.781Z,12.55
2023-03-20T13:43:39.208Z,16.40
2023-03-20T13:46:16.120Z,16.05
2023-03-20T13:48:53.154Z,17.65
2023-03-20T13:51:34.690Z,17.15
2023-03-20T13:54:17.115Z,17.20
2023-03-20T13:56:57.624Z,18.17
2023-03-20T14:02:29.153Z,14.27
2023-03-20T14:05:07.685Z,16.17
2023-03-20T14:07:44.388Z,16.10
2023-03-20T14:10:37.814Z,19.27
2023-03-20T14:13:18.294Z,16.98
2023-03-20T14:15:56.029Z,14.30
2023-03-20T14:18:29.730Z,16.88
2023-03-20T14:21:12.346Z,16.95
2023-03-20T14:23:50.679Z,12.45
2023-03-20T14:26:27.891Z,16.85
2023-03-20T14:29:02.820Z,13.82
2023-03-20T14:31:38.397Z,14.02
2023-03-20T14:34:17.615Z,13.80
2023-03-20T14:36:58.856Z,11.40
2023-03-20T14:39:43.236Z,13.90
2023-03-20T14:42:25.756Z,11.32
2023-03-20T14:45:20.427Z,11.32
2023-03-20T14:48:02.105Z,11.27
2023-03-20T14:50:40.639Z,12.77
2023-03-20T14:53:19.821Z,11.35
2023-03-20T14:56:04.330Z,11.65
2023-03-20T14:58:47.530Z,12.32
2023-03-20T15:01:27.646Z,11.02
2023-03-20T15:04:06.865Z,12.23
2023-03-20T15:06:46.451Z,14.43
2023-03-20T15:09:22.909Z,11.80
2023-03-20T15:11:59.870Z,11.52
2023-03-20T15:14:42.589Z,10.95
2023-03-20T15:17:21.352Z,11.57
2023-03-20T15:20:02.344Z,10.65
2023-03-20T15:22:35.560Z,9.88
2023-03-20T15:25:17.591Z,9.50
2023-03-20T15:27:51.913Z,8.75
2023-03-20T15:30:25.908Z,8.52
2023-03-20T15:32:59.406Z,10.80
2023-03-20T15:35:32.608Z,8.63
2023-03-20T15:38:08.191Z,9.02
2023-03-20T15:40:50.547Z,8.88
2023-03-20T15:43:26.130Z,10.95
2023-03-20T15:46:16.844Z,9.45
2023-03-20T15:48:50.968Z,7.68
2023-03-20T15:51:27.663Z,8.27
2023-03-20T15:54:01.816Z,9.48
2023-03-20T15:56:42.787Z,7.57
2023-03-20T15:59:18.459Z,9.65
2023-03-20T16:01:54.479Z,10.65
2023-03-20T16:04:28.933Z,8.32
2023-03-20T16:07:03.237Z,7.90
2023-03-20T16:09:44.211Z,8.93
2023-03-20T16:12:19.715Z,8.85
2023-03-20T16:14:52.930Z,9.43
2023-03-20T16:17:27.184Z,9.20
2023-03-20T16:19:59.929Z,8.30
2023-03-20T16:22:34.422Z,8.23
2023-03-20T16:25:13.702Z,8.15
2023-03-20T16:27:52.161Z,7.95
2023-03-20T16:30:27.456Z,8.73
2023-03-20T16:33:02.609Z,9.93
2023-03-20T16:35:40.476Z,6.75
2023-03-20T16:38:23.450Z,11.57
2023-03-20T16:40:58.408Z,7.82
2023-03-20T16:43:33.114Z,7.30
2023-03-20T16:46:07.737Z,6.53
2023-03-20T16:48:43.121Z,6.35
2023-03-20T16:51:21.710Z,7.07
2023-03-20T16:53:57.506Z,8.18
2023-03-20T16:56:34.771Z,7.93
2023-03-20T16:59:10.848Z,5.80
2023-03-20T17:01:48.130Z,5.97
2023-03-20T17:04:23.910Z,8.77
2023-03-20T17:07:00.968Z,6.30
2023-03-20T17:09:34.299Z,6.57
2023-03-20T17:12:16.056Z,5.22
2023-03-20T17:14:50.257Z,7.88
2023-03-20T17:17:25.102Z,7.32
2023-03-20T17:19:59.598Z,7.22
2023-03-20T17:22:33.516Z,7.05
2023-03-20T17:25:07.790Z,6.47
2023-03-20T17:27:40.954Z,3.92
2023-03-20T17:30:19.472Z,6.20
2023-03-20T17:32:52.934Z,5.90
2023-03-20T17:35:25.804Z,7.35
2023-03-20T17:37:58.718Z,13.05
2023-03-20T17:40:31.722Z,9.52
2023-03-20T17:43:04.565Z,7.40
2023-03-20T17:45:38.950Z,4.95
2023-03-20T17:48:37.076Z,5.95
2023-03-20T17:51:11.674Z,8.90
2023-03-20T17:53:44.881Z,7.72
2023-03-20T17:56:17.899Z,7.75
2023-03-20T17:58:50.905Z,6.80
2023-03-20T18:01:25.396Z,7.43
2023-03-20T18:03:58.272Z,7.93
2023-03-20T18:06:33.640Z,8.15
2023-03-20T18:09:08.898Z,9.63
2023-03-20T18:11:41.893Z,6.18
2023-03-20T18:14:17.993Z,8.07
2023-03-20T18:16:52.308Z,8.60
2023-03-20T18:19:28.385Z,7.68
2023-03-20T18:22:01.347Z,6.53
2023-03-20T18:24:34.485Z,6.05
2023-03-20T18:27:07.935Z,6.15
2023-03-20T18:29:43.622Z,5.72
2023-03-20T18:32:17.785Z,6.13
2023-03-20T18:34:50.715Z,7.45
2023-03-20T18:37:23.481Z,7.28
2023-03-20T18:39:57.802Z,7.35
2023-03-20T18:42:30.860Z,8.63
2023-03-20T18:45:03.622Z,5.30
2023-03-20T18:47:37.804Z,7.47
2023-03-20T18:50:23.654Z,6.38
2023-03-20T18:52:58.334Z,7.00
2023-03-20T18:55:32.386Z,6.22
2023-03-20T18:58:06.557Z,5.05
2023-03-20T19:00:42.968Z,9.35
2023-03-20T19:03:17.304Z,5.50
2023-03-20T19:05:50.458Z,5.25
2023-03-20T19:08:23.637Z,4.55
2023-03-20T19:10:56.797Z,5.82
2023-03-20T19:13:29.770Z,6.70
2023-03-20T19:16:02.728Z,6.78
2023-03-20T19:18:39.947Z,7.45
2023-03-20T19:21:13.221Z,7.80
2023-03-20T19:23:46.488Z,7.05
2023-03-20T19:26:21.034Z,8.32
2023-03-20T19:28:54.904Z,6.43
2023-03-20T19:31:28.485Z,6.00
2023-03-20T19:34:03.184Z,4.43
2023-03-20T19:36:38.105Z,4.95
2023-03-20T19:39:15.274Z,4.05
2023-03-20T19:41:50.092Z,4.15
2023-03-20T19:44:22.965Z,2.60
2023-03-20T19:46:56.500Z,3.53
2023-03-20T19:49:33.017Z,4.22
2023-03-20T19:52:07.082Z,3.65
2023-03-20T19:54:56.245Z,4.70
2023-03-20T19:57:34.885Z,5.10
2023-03-20T20:00:54.401Z,6.90
2023-03-20T20:03:03.379Z,6.30
2023-03-20T20:05:39.486Z,6.70
2023-03-20T20:08:26.161Z,3.80
2023-03-20T20:11:02.658Z,6.32
2023-03-20T20:13:50.748Z,4.15
2023-03-20T20:16:28.303Z,5.75
2023-03-20T20:19:01.296Z,3.75
2023-03-20T20:24:29.257Z,3.58
2023-03-20T20:27:18.616Z,4.47
2023-03-20T20:29:53.187Z,3.67
2023-03-20T20:32:28.010Z,5.85
2023-03-20T20:38:36.736Z,3.15
2023-03-20T20:40:50.868Z,3.10
2023-03-20T20:43:50.746Z,4.57
2023-03-20T20:46:17.134Z,3.47
2023-03-20T20:48:52.200Z,6.32
2023-03-20T20:51:25.341Z,4.63
2023-03-20T20:53:59.657Z,3.05
2023-03-20T20:56:32.572Z,4.90
2023-03-20T20:59:05.748Z,3.30
2023-03-20T21:01:38.854Z,2.95
2023-03-20T21:04:11.916Z,3.95
2023-03-20T21:07:08.165Z,6.28
2023-03-20T21:09:39.453Z,4.25
2023-03-20T21:12:26.638Z,5.38
2023-03-20T21:15:07.185Z,6.50
2023-03-20T21:17:50.428Z,4.05
2023-03-20T21:20:30.932Z,4.68
2023-03-20T21:23:03.708Z,5.63
2023-03-20T21:25:41.192Z,6.05
2023-03-20T21:28:15.339Z,5.32
2023-03-20T21:31:12.558Z,6.25
2023-03-20T21:33:41.125Z,5.47
2023-03-20T21:36:14.187Z,9.38
2023-03-20T21:39:06.807Z,8.52
2023-03-20T21:41:42.670Z,6.85
2023-03-20T21:44:21.820Z,11.18
2023-03-20T21:53:59.014Z,7.68
2023-03-20T21:56:41.891Z,7.78
2023-03-20T22:02:09.872Z,10.77
2023-03-20T22:05:18.702Z,8.95
2023-03-20T22:07:56.288Z,9.68
2023-03-20T22:14:13.383Z,3.75
2023-03-20T22:16:57.829Z,3.90
2023-03-20T22:22:37.406Z,7.90
2023-03-20T22:37:09.316Z,3.42
2023-03-20T22:39:58.564Z,6.97
2023-03-20T22:45:02.922Z,7.30
2023-03-20T22:47:36.847Z,5.72
2023-03-20T22:50:11.964Z,5.35
2023-03-20T22:52:49.382Z,5.05
2023-03-20T22:55:25.535Z,4.47
2023-03-20T22:58:06.891Z,4.15
2023-03-20T23:00:41.162Z,7.50
2023-03-20T23:03:25.720Z,7.95
2023-03-20T23:06:08.495Z,5.80
2023-03-20T23:08:50.423Z,8.45
2023-03-20T23:11:25.679Z,7.70
2023-03-20T23:13:58.458Z,4.93
2023-03-20T23:16:31.512Z,5.38
2023-03-20T23:19:04.490Z,5.82
2023-03-20T23:21:38.805Z,6.30
2023-03-20T23:24:11.987Z,8.52
2023-03-20T23:26:44.931Z,7.88
2023-03-20T23:29:17.712Z,5.53
2023-03-20T23:31:50.492Z,3.53
2023-03-20T23:34:23.375Z,7.75
2023-03-20T23:36:57.638Z,7.25
2023-03-20T23:39:30.390Z,6.63
2023-03-20T23:42:14.657Z,8.00
2023-03-20T23:47:46.697Z,5.90
2023-03-20T23:50:36.639Z,4.22
2023-03-20T23:53:20.748Z,9.70
2023-03-20T23:55:55.708Z,5.75
2023-03-20T23:58:29.372Z,7.10
